Time;durP1;ratioP1;P1;durP2;ratioP2;P2;SDS_P1;SDS_P2;PMS_P1;PMS_P2;Temp;Humidity;BMP_temperature;BMP_pressure;BME280_temperature;BME280_humidity;BME280_pressure;Samples;Min_cycle;Max_cycle;Signal;HPM_P1;HPM_P2
2022/05/26 00:00:27;;;;;;;0.05;0.05;;;;;;;;;;4994586;28;20064;-80
2022/05/26 00:02:52;;;;;;;0.30;0.20;;;;;;;;;;5008109;28;20013;-80
2022/05/26 00:05:18;;;;;;;0.25;0.25;;;;;;;;;;5001256;28;20456;-82
2022/05/26 00:07:46;;;;;;;1.27;0.30;;;;;;;;;;5016626;28;20371;-80
2022/05/26 00:10:14;;;;;;;0.20;0.20;;;;;;;;;;5017757;28;21346;-81
2022/05/26 00:13:05;;;;;;;0.20;0.20;;;;;;;;;;5014531;28;20048;-80
2022/05/26 00:15:30;;;;;;;0.22;0.10;;;;;;;;;;5015712;28;20041;-82
2022/05/26 00:17:58;;;;;;;3.20;0.25;;;;;;;;;;5016673;28;20037;-82
2022/05/26 00:20:23;;;;;;;0.77;0.40;;;;;;;;;;4999550;28;20036;-81
2022/05/26 00:23:15;;;;;;;1.25;0.40;;;;;;;;;;5015678;28;20033;-80
2022/05/26 00:25:40;;;;;;;0.00;0.00;;;;;;;;;;4991791;28;20044;-82
2022/05/26 00:28:10;;;;;;;0.10;0.10;;;;;;;;;;5015475;28;20026;-81
2022/05/26 00:30:37;;;;;;;0.10;0.10;;;;;;;;;;5014658;28;20427;-81
2022/05/26 00:33:04;;;;;;;0.52;0.52;;;;;;;;;;4998718;28;20125;-81
2022/05/26 00:35:48;;;;;;;0.10;0.10;;;;;;;;;;4998541;28;20032;-82
2022/05/26 00:38:25;;;;;;;0.40;0.38;;;;;;;;;;5014150;28;20044;-81
2022/05/26 00:40:50;;;;;;;0.43;0.22;;;;;;;;;;5014127;28;20022;-81
2022/05/26 00:43:15;;;;;;;0.38;0.38;;;;;;;;;;5015885;28;20344;-82
2022/05/26 00:45:54;;;;;;;0.00;0.00;;;;;;;;;;4998298;28;20458;-80
2022/05/26 00:48:21;;;;;;;1.75;0.88;;;;;;;;;;5012069;28;20052;-79
2022/05/26 00:50:49;;;;;;;0.00;0.00;;;;;;;;;;5013049;28;20029;-80
2022/05/26 00:53:26;;;;;;;1.38;0.55;;;;;;;;;;5015496;28;20101;-80
2022/05/26 00:56:01;;;;;;;0.10;0.10;;;;;;;;;;5013433;28;20050;-79
2022/05/26 00:58:31;;;;;;;13.05;0.65;;;;;;;;;;5011223;28;20025;-79
2022/05/26 01:00:59;;;;;;;0.00;0.00;;;;;;;;;;5014001;28;20026;-80
2022/05/26 01:03:32;;;;;;;0.17;0.17;;;;;;;;;;5015408;28;20022;-80
2022/05/26 01:06:07;;;;;;;0.65;0.65;;;;;;;;;;5013827;28;20030;-80
2022/05/26 01:08:43;;;;;;;0.47;0.32;;;;;;;;;;5011300;28;20113;-80
2022/05/26 01:11:09;;;;;;;0.15;0.15;;;;;;;;;;5015579;28;20034;-81
2022/05/26 01:13:44;;;;;;;0.10;0.10;;;;;;;;;;5014464;28;20037;-81
2022/05/26 01:16:22;;;;;;;0.40;0.30;;;;;;;;;;5012418;28;20036;-78
2022/05/26 01:19:15;;;;;;;0.17;0.17;;;;;;;;;;5015320;28;20040;-76
2022/05/26 01:21:45;;;;;;;0.38;0.30;;;;;;;;;;5011974;28;20038;-77
2022/05/26 01:24:39;;;;;;;0.05;0.05;;;;;;;;;;5013057;28;20107;-78
2022/05/26 01:27:18;;;;;;;0.65;0.30;;;;;;;;;;5007270;28;20080;-77
2022/05/26 01:30:02;;;;;;;0.10;0.10;;;;;;;;;;5013604;28;20034;-78
2022/05/26 01:32:30;;;;;;;0.52;0.52;;;;;;;;;;5014574;28;20034;-77
2022/05/26 01:35:08;;;;;;;0.00;0.00;;;;;;;;;;5015064;28;20026;-78
2022/05/26 01:37:46;;;;;;;0.20;0.20;;;;;;;;;;5014849;28;20029;-77
2022/05/26 01:40:44;;;;;;;0.00;0.00;;;;;;;;;;5007096;28;20049;-77
2022/05/26 01:43:16;;;;;;;0.22;0.22;;;;;;;;;;5012041;28;20180;-78
2022/05/26 01:46:01;;;;;;;0.70;0.60;;;;;;;;;;5013264;28;20459;-77
2022/05/26 01:48:33;;;;;;;0.77;0.05;;;;;;;;;;5009150;28;20033;-78
2022/05/26 01:51:03;;;;;;;0.10;0.10;;;;;;;;;;5012345;28;20030;-78
2022/05/26 01:53:37;;;;;;;0.30;0.30;;;;;;;;;;5010472;28;20029;-76
2022/05/26 01:56:07;;;;;;;1.58;0.45;;;;;;;;;;5014178;28;20022;-78
2022/05/26 01:58:36;;;;;;;8.60;0.60;;;;;;;;;;5014062;28;20355;-78
2022/05/26 02:01:06;;;;;;;7.28;1.38;;;;;;;;;;5013263;28;20056;-77
2022/05/26 02:03:33;;;;;;;1.00;0.77;;;;;;;;;;5012589;28;20160;-77
2022/05/26 02:06:17;;;;;;;0.20;0.20;;;;;;;;;;5013413;28;20083;-77
2022/05/26 02:08:48;;;;;;;0.13;0.10;;;;;;;;;;5012866;28;20026;-77
2022/05/26 02:11:17;;;;;;;0.10;0.10;;;;;;;;;;5014025;28;20428;-77
2022/05/26 02:13:54;;;;;;;0.20;0.20;;;;;;;;;;5013463;28;20092;-77
2022/05/26 02:16:29;;;;;;;0.15;0.15;;;;;;;;;;5005150;28;20022;-77
2022/05/26 02:19:15;;;;;;;0.38;0.38;;;;;;;;;;5014586;28;20030;-77
2022/05/26 02:21:45;;;;;;;1.02;0.15;;;;;;;;;;5013565;28;20025;-76
2022/05/26 02:24:17;;;;;;;0.22;0.22;;;;;;;;;;5014296;28;20439;-77
2022/05/26 02:26:43;;;;;;;0.05;0.05;;;;;;;;;;5029903;28;20087;-77
2022/05/26 02:31:57;;;;;;;2.10;0.32;;;;;;;;;;5013119;28;20045;-78
2022/05/26 02:34:25;;;;;;;0.15;0.15;;;;;;;;;;5013381;28;20041;-77
2022/05/26 02:36:54;;;;;;;0.20;0.20;;;;;;;;;;5013870;28;20026;-78
2022/05/26 02:39:20;;;;;;;0.20;0.20;;;;;;;;;;5013275;28;20091;-78
2022/05/26 02:41:45;;;;;;;0.28;0.28;;;;;;;;;;5012130;28;20412;-78
2022/05/26 02:44:11;;;;;;;0.50;0.28;;;;;;;;;;5029591;28;20062;-78
2022/05/26 02:46:47;;;;;;;0.20;0.20;;;;;;;;;;5013608;28;20084;-78
2022/05/26 02:49:50;;;;;;;0.03;0.03;;;;;;;;;;5013243;28;20033;-78
2022/05/26 02:52:47;;;;;;;0.40;0.08;;;;;;;;;;5007448;28;20037;-77
2022/05/26 02:56:04;;;;;;;0.38;0.38;;;;;;;;;;5012772;28;20050;-78
2022/05/26 02:58:53;;;;;;;0.10;0.10;;;;;;;;;;5013612;28;20104;-76
2022/05/26 03:01:37;;;;;;;0.40;0.40;;;;;;;;;;5012241;28;20414;-78
2022/05/26 03:04:21;;;;;;;0.93;0.93;;;;;;;;;;5011489;28;20034;-77
2022/05/26 03:06:52;;;;;;;0.40;0.40;;;;;;;;;;5013010;28;20041;-78
2022/05/26 03:09:19;;;;;;;0.22;0.22;;;;;;;;;;5012758;28;20095;-77
2022/05/26 03:11:48;;;;;;;0.10;0.10;;;;;;;;;;5012917;28;20455;-78
2022/05/26 03:14:14;;;;;;;0.00;0.00;;;;;;;;;;5012211;28;20170;-78
2022/05/26 03:16:43;;;;;;;0.50;0.50;;;;;;;;;;5011485;28;20128;-78
2022/05/26 03:19:10;;;;;;;0.40;0.40;;;;;;;;;;5013720;28;20032;-78
2022/05/26 03:21:35;;;;;;;0.55;0.55;;;;;;;;;;4996448;28;20087;-78
2022/05/26 03:24:00;;;;;;;2.67;1.17;;;;;;;;;;5013850;28;20045;-78
2022/05/26 03:26:28;;;;;;;0.47;0.47;;;;;;;;;;5013830;28;20030;-78
2022/05/26 03:28:58;;;;;;;0.32;0.32;;;;;;;;;;5009510;28;20022;-77
2022/05/26 03:31:23;;;;;;;0.45;0.45;;;;;;;;;;5012171;28;20033;-78
2022/05/26 03:42:09;;;;;;;0.10;0.10;;;;;;;;;;5009280;28;20036;-77
2022/05/26 03:44:36;;;;;;;1.05;0.60;;;;;;;;;;4995088;28;20025;-77
2022/05/26 03:47:02;;;;;;;0.55;0.30;;;;;;;;;;5012583;28;20332;-77
2022/05/26 03:49:28;;;;;;;1.42;0.85;;;;;;;;;;5014708;28;20371;-78
2022/05/26 03:51:53;;;;;;;0.30;0.20;;;;;;;;;;5016646;28;20030;-77
2022/05/26 03:54:19;;;;;;;0.82;0.40;;;;;;;;;;5015842;28;20032;-78
2022/05/26 03:56:44;;;;;;;0.20;0.20;;;;;;;;;;4999299;28;20022;-77
2022/05/26 03:59:09;;;;;;;0.73;0.60;;;;;;;;;;5016061;28;20339;-76
2022/05/26 04:01:35;;;;;;;0.50;0.40;;;;;;;;;;5016757;28;20022;-77
2022/05/26 04:04:01;;;;;;;0.10;0.10;;;;;;;;;;5017063;28;20034;-77
2022/05/26 04:06:27;;;;;;;0.20;0.20;;;;;;;;;;5014094;28;20104;-77
2022/05/26 04:08:54;;;;;;;1.40;0.70;;;;;;;;;;5016560;28;20030;-76
2022/05/26 04:11:21;;;;;;;5.00;1.10;;;;;;;;;;5015216;28;20113;-78
2022/05/26 04:13:46;;;;;;;0.65;0.47;;;;;;;;;;5016610;28;20414;-78
2022/05/26 04:16:12;;;;;;;2.20;0.10;;;;;;;;;;5014964;28;20100;-78
2022/05/26 04:18:37;;;;;;;0.55;0.40;;;;;;;;;;5015661;28;20041;-77
2022/05/26 04:21:08;;;;;;;0.40;0.40;;;;;;;;;;5016445;28;20101;-77
2022/05/26 04:23:34;;;;;;;0.00;0.00;;;;;;;;;;5016533;28;20430;-79
2022/05/26 04:25:59;;;;;;;0.25;0.25;;;;;;;;;;4998771;28;20451;-79
2022/05/26 04:28:27;;;;;;;0.15;0.10;;;;;;;;;;5015757;28;20096;-80
2022/05/26 04:30:52;;;;;;;0.40;0.20;;;;;;;;;;5015717;28;20029;-80
2022/05/26 04:33:17;;;;;;;0.50;0.50;;;;;;;;;;5015767;28;20219;-78
2022/05/26 04:35:43;;;;;;;2.58;1.00;;;;;;;;;;5015188;28;20037;-79
2022/05/26 04:38:11;;;;;;;0.10;0.10;;;;;;;;;;5015281;28;20049;-78
2022/05/26 04:40:39;;;;;;;1.00;0.55;;;;;;;;;;5013746;28;20080;-78
2022/05/26 04:43:05;;;;;;;0.70;0.70;;;;;;;;;;5013048;28;20359;-78
2022/05/26 04:45:31;;;;;;;1.88;1.13;;;;;;;;;;5014751;28;20045;-78
2022/05/26 04:47:57;;;;;;;1.63;0.35;;;;;;;;;;5015585;28;20022;-78
2022/05/26 04:50:23;;;;;;;2.17;1.23;;;;;;;;;;5015975;28;20036;-78
2022/05/26 04:52:49;;;;;;;0.57;0.52;;;;;;;;;;5015023;28;20466;-77
2022/05/26 04:55:14;;;;;;;0.50;0.50;;;;;;;;;;5011765;28;20042;-77
2022/05/26 04:57:42;;;;;;;0.73;0.65;;;;;;;;;;5015647;28;20076;-78
2022/05/26 05:00:10;;;;;;;0.60;0.22;;;;;;;;;;5015412;28;20041;-77
2022/05/26 05:02:36;;;;;;;0.82;0.43;;;;;;;;;;5015786;28;20021;-78
2022/05/26 05:05:03;;;;;;;4.85;0.98;;;;;;;;;;4997585;28;20036;-78
2022/05/26 05:07:28;;;;;;;1.85;1.02;;;;;;;;;;4998405;28;20021;-78
2022/05/26 05:09:53;;;;;;;1.98;1.52;;;;;;;;;;5014151;28;20499;-77
2022/05/26 05:12:21;;;;;;;0.98;0.85;;;;;;;;;;5015536;28;20382;-76
2022/05/26 05:14:49;;;;;;;3.38;0.80;;;;;;;;;;5014623;28;20104;-78
2022/05/26 05:17:16;;;;;;;1.98;1.00;;;;;;;;;;5013977;28;20030;-78
2022/05/26 05:19:44;;;;;;;0.60;0.52;;;;;;;;;;5015302;28;20378;-78
2022/05/26 05:22:16;;;;;;;1.98;1.38;;;;;;;;;;5015292;28;20034;-78
2022/05/26 05:25:03;;;;;;;3.58;1.60;;;;;;;;;;5014934;28;20074;-77
2022/05/26 05:27:40;;;;;;;0.93;0.88;;;;;;;;;;5029441;28;20062;-78
2022/05/26 05:30:12;;;;;;;1.75;1.27;;;;;;;;;;5014227;28;20526;-77
2022/05/26 05:32:42;;;;;;;1.25;1.15;;;;;;;;;;5014061;28;20033;-78
2022/05/26 05:35:13;;;;;;;2.88;1.98;;;;;;;;;;5008707;28;20457;-78
2022/05/26 05:37:40;;;;;;;1.23;1.10;;;;;;;;;;5013314;28;20030;-77
2022/05/26 05:40:07;;;;;;;2.47;1.60;;;;;;;;;;5013318;28;20026;-77
2022/05/26 05:42:32;;;;;;;1.30;1.20;;;;;;;;;;5015260;28;20092;-78
2022/05/26 05:45:00;;;;;;;1.80;1.20;;;;;;;;;;4997963;28;20021;-78
2022/05/26 05:47:25;;;;;;;1.63;1.52;;;;;;;;;;5007781;28;20025;-78
2022/05/26 05:49:51;;;;;;;3.53;1.70;;;;;;;;;;5014308;28;20324;-78
2022/05/26 05:52:23;;;;;;;2.30;1.70;;;;;;;;;;5013799;28;20402;-78
2022/05/26 05:54:51;;;;;;;1.80;1.65;;;;;;;;;;5013097;28;20022;-77
2022/05/26 05:57:17;;;;;;;1.75;1.10;;;;;;;;;;5013304;28;20033;-78
2022/05/26 05:59:45;;;;;;;1.35;1.25;;;;;;;;;;5014009;28;20029;-78
2022/05/26 06:02:13;;;;;;;2.10;1.55;;;;;;;;;;5008500;28;20030;-78
2022/05/26 06:04:45;;;;;;;0.65;0.65;;;;;;;;;;5007754;28;20359;-78
2022/05/26 06:07:13;;;;;;;1.45;1.35;;;;;;;;;;4998039;28;20025;-77
2022/05/26 06:09:39;;;;;;;1.48;1.38;;;;;;;;;;5013728;28;20045;-77
2022/05/26 06:12:05;;;;;;;2.95;1.23;;;;;;;;;;5013848;28;20030;-77
2022/05/26 06:14:30;;;;;;;1.48;1.17;;;;;;;;;;5012797;28;20041;-77
2022/05/26 06:16:55;;;;;;;1.40;1.30;;;;;;;;;;5012623;28;20041;-77
2022/05/26 06:19:20;;;;;;;2.25;1.77;;;;;;;;;;4997335;28;20037;-77
2022/05/26 06:21:46;;;;;;;3.78;1.75;;;;;;;;;;5012984;28;20030;-77
2022/05/26 06:24:11;;;;;;;1.10;0.60;;;;;;;;;;5012886;28;20022;-77
2022/05/26 06:26:37;;;;;;;4.03;2.15;;;;;;;;;;5012171;28;20033;-77
2022/05/26 06:37:45;;;;;;;0.73;0.73;;;;;;;;;;5002348;28;20045;-77
2022/05/26 06:40:10;;;;;;;1.55;1.10;;;;;;;;;;5013185;28;20036;-78
2022/05/26 06:42:36;;;;;;;2.80;1.98;;;;;;;;;;5013093;28;20066;-78
2022/05/26 06:45:01;;;;;;;3.95;2.33;;;;;;;;;;5011036;28;20108;-78
2022/05/26 06:47:26;;;;;;;3.58;2.00;;;;;;;;;;5012517;28;20068;-78
2022/05/26 06:49:52;;;;;;;2.45;1.83;;;;;;;;;;5012126;28;20095;-78
2022/05/26 06:52:21;;;;;;;3.88;2.03;;;;;;;;;;5012841;28;20036;-77
2022/05/26 06:54:47;;;;;;;2.60;1.65;;;;;;;;;;5014057;28;20033;-78
2022/05/26 06:57:13;;;;;;;2.28;2.08;;;;;;;;;;5013624;28;20026;-78
2022/05/26 06:59:42;;;;;;;1.50;1.10;;;;;;;;;;5013399;28;20102;-78
2022/05/26 07:02:09;;;;;;;6.40;2.00;;;;;;;;;;5012532;28;20420;-78
2022/05/26 07:04:39;;;;;;;3.20;2.25;;;;;;;;;;5011342;28;20018;-78
2022/05/26 07:07:04;;;;;;;1.33;1.20;;;;;;;;;;4996808;28;20466;-78
2022/05/26 07:09:30;;;;;;;1.25;1.08;;;;;;;;;;5029313;28;20113;-78
2022/05/26 07:11:56;;;;;;;1.90;1.75;;;;;;;;;;5013060;28;20518;-79
2022/05/26 07:14:24;;;;;;;4.30;1.85;;;;;;;;;;5013103;28;20030;-77
2022/05/26 07:16:49;;;;;;;2.63;2.20;;;;;;;;;;4995878;28;20068;-78
2022/05/26 07:19:17;;;;;;;1.65;1.05;;;;;;;;;;5013894;28;20053;-78
2022/05/26 07:21:49;;;;;;;4.53;2.03;;;;;;;;;;5029482;28;20450;-78
2022/05/26 07:24:20;;;;;;;6.65;1.50;;;;;;;;;;5016555;28;20068;-78
2022/05/26 07:26:47;;;;;;;1.10;1.02;;;;;;;;;;5016768;28;20486;-78
2022/05/26 07:29:16;;;;;;;4.85;1.90;;;;;;;;;;5016114;28;20029;-78
2022/05/26 07:31:44;;;;;;;16.08;1.60;;;;;;;;;;5016461;28;20095;-78
2022/05/26 07:34:12;;;;;;;1.83;1.25;;;;;;;;;;5020512;28;20026;-79
2022/05/26 07:42:09;;;;;;;1.90;1.35;;;;;;;;;;5011085;28;20473;-78
2022/05/26 07:44:37;;;;;;;6.18;2.38;;;;;;;;;;5013782;28;20030;-79
2022/05/26 07:47:05;;;;;;;1.98;1.77;;;;;;;;;;4997291;28;20026;-79
2022/05/26 07:49:32;;;;;;;2.38;1.48;;;;;;;;;;4998525;28;20029;-78
2022/05/26 07:51:58;;;;;;;4.32;2.65;;;;;;;;;;5015087;28;20030;-79
2022/05/26 07:54:28;;;;;;;2.17;1.33;;;;;;;;;;4999801;28;20387;-79
2022/05/26 07:56:53;;;;;;;3.10;2.80;;;;;;;;;;5017859;28;20037;-80
2022/05/26 07:59:19;;;;;;;1.20;1.05;;;;;;;;;;5015748;28;20022;-79
2022/05/26 08:01:44;;;;;;;2.33;2.13;;;;;;;;;;5015900;28;20034;-79
2022/05/26 08:04:09;;;;;;;2.50;1.95;;;;;;;;;;5017201;28;20017;-79
2022/05/26 08:06:36;;;;;;;2.60;2.25;;;;;;;;;;5016141;28;20029;-80
2022/05/26 08:09:01;;;;;;;1.67;1.55;;;;;;;;;;5032364;28;20041;-79
2022/05/26 08:11:26;;;;;;;3.13;2.10;;;;;;;;;;5015360;28;20022;-78
2022/05/26 08:13:52;;;;;;;2.90;1.65;;;;;;;;;;5015298;28;20038;-79
2022/05/26 08:16:22;;;;;;;2.67;2.25;;;;;;;;;;4999733;28;20112;-79
2022/05/26 08:18:47;;;;;;;7.45;2.55;;;;;;;;;;5014514;28;20037;-79
2022/05/26 08:21:16;;;;;;;5.30;2.15;;;;;;;;;;5016864;28;20056;-79
2022/05/26 08:23:44;;;;;;;1.65;1.42;;;;;;;;;;5016943;28;20029;-80
2022/05/26 08:26:10;;;;;;;1.50;1.40;;;;;;;;;;5015636;28;20466;-80
2022/05/26 08:28:35;;;;;;;4.03;2.33;;;;;;;;;;5015350;28;20053;-80
2022/05/26 08:31:08;;;;;;;4.95;3.20;;;;;;;;;;5016664;28;20104;-80
2022/05/26 08:33:37;;;;;;;4.38;2.63;;;;;;;;;;5015889;28;20022;-80
2022/05/26 08:36:11;;;;;;;1.67;1.58;;;;;;;;;;5008420;28;20025;-80
2022/05/26 08:38:37;;;;;;;3.75;2.85;;;;;;;;;;5016410;28;20040;-79
2022/05/26 08:41:04;;;;;;;1.25;0.85;;;;;;;;;;5014261;28;20029;-80
2022/05/26 08:43:36;;;;;;;1.23;1.00;;;;;;;;;;5015632;28;20362;-79
2022/05/26 08:46:07;;;;;;;1.13;0.63;;;;;;;;;;5014679;28;20036;-79
2022/05/26 08:48:42;;;;;;;0.73;0.73;;;;;;;;;;5031815;28;20040;-79
2022/05/26 08:51:10;;;;;;;1.92;1.83;;;;;;;;;;5014963;28;20026;-80
2022/05/26 08:53:38;;;;;;;1.85;1.75;;;;;;;;;;5015406;28;20088;-80
2022/05/26 08:56:04;;;;;;;2.08;1.35;;;;;;;;;;5015101;28;20030;-79
2022/05/26 08:58:44;;;;;;;0.77;0.65;;;;;;;;;;5013735;28;20133;-79
2022/05/26 09:01:16;;;;;;;3.83;1.88;;;;;;;;;;5014515;28;20112;-79
2022/05/26 09:03:41;;;;;;;0.85;0.75;;;;;;;;;;4999107;28;20026;-79
2022/05/26 09:06:12;;;;;;;3.45;2.33;;;;;;;;;;5016058;28;20469;-78
2022/05/26 09:14:41;;;;;;;1.55;0.98;;;;;;;;;;5014766;28;20117;-80
2022/05/26 09:17:28;;;;;;;0.65;0.65;;;;;;;;;;5005631;28;20116;-80
2022/05/26 09:19:54;;;;;;;2.15;1.45;;;;;;;;;;5014671;28;20354;-80
2022/05/26 09:22:44;;;;;;;1.02;0.93;;;;;;;;;;5013035;28;20036;-81
2022/05/26 09:25:45;;;;;;;3.35;2.08;;;;;;;;;;5012898;28;20037;-80
2022/05/26 09:28:44;;;;;;;2.95;1.45;;;;;;;;;;4982496;28;20041;-80
2022/05/26 09:31:34;;;;;;;1.05;1.02;;;;;;;;;;5015301;28;20045;-81
2022/05/26 09:34:15;;;;;;;1.70;1.05;;;;;;;;;;5012795;28;20084;-80
2022/05/26 09:37:03;;;;;;;0.85;0.73;;;;;;;;;;5007516;28;20037;-80
2022/05/26 09:39:41;;;;;;;1.30;0.88;;;;;;;;;;5009282;28;20447;-80
2022/05/26 09:42:27;;;;;;;1.52;0.95;;;;;;;;;;5010515;28;20332;-78
2022/05/26 09:45:41;;;;;;;3.10;1.15;;;;;;;;;;5005869;28;20052;-79
2022/05/26 09:48:17;;;;;;;0.98;0.82;;;;;;;;;;4950960;28;20354;-80
2022/05/26 09:50:48;;;;;;;1.70;1.00;;;;;;;;;;4969301;28;20095;-80
2022/05/26 09:53:27;;;;;;;0.73;0.68;;;;;;;;;;4954820;28;20100;-80
2022/05/26 09:55:56;;;;;;;0.65;0.65;;;;;;;;;;4951033;28;20042;-79
2022/05/26 09:58:27;;;;;;;0.75;0.75;;;;;;;;;;4950183;28;20038;-81
2022/05/26 10:01:18;;;;;;;1.13;1.02;;;;;;;;;;4952521;28;20030;-79
2022/05/26 10:04:05;;;;;;;0.85;0.85;;;;;;;;;;4939980;28;20377;-80
2022/05/26 10:06:42;;;;;;;1.33;1.20;;;;;;;;;;4971766;28;20034;-80
2022/05/26 10:09:22;;;;;;;0.82;0.63;;;;;;;;;;4971304;28;20058;-81
2022/05/26 10:12:28;;;;;;;1.67;1.30;;;;;;;;;;4969826;28;20065;-82
2022/05/26 10:15:30;;;;;;;0.52;0.52;;;;;;;;;;4971974;28;20031;-79
2022/05/26 10:18:37;;;;;;;1.40;1.13;;;;;;;;;;4969839;28;20035;-77
2022/05/26 10:21:57;;;;;;;0.40;0.40;;;;;;;;;;4894746;29;20068;-78
2022/05/26 10:24:55;;;;;;;2.15;0.82;;;;;;;;;;4926625;29;20032;-79
2022/05/26 10:27:21;;;;;;;2.13;0.98;;;;;;;;;;4916569;29;20027;-78
2022/05/26 10:33:30;;;;;;;1.23;1.00;;;;;;;;;;4923943;29;20048;-79
2022/05/26 10:36:19;;;;;;;0.75;0.50;;;;;;;;;;4932177;29;20036;-79
2022/05/26 10:38:54;;;;;;;2.28;1.15;;;;;;;;;;4935961;29;20039;-78
2022/05/26 10:41:40;;;;;;;2.53;1.13;;;;;;;;;;4932038;29;20362;-79
2022/05/26 10:44:34;;;;;;;0.77;0.40;;;;;;;;;;4932442;29;20043;-79
2022/05/26 10:47:27;;;;;;;3.00;0.82;;;;;;;;;;4928265;29;20047;-78
2022/05/26 10:49:57;;;;;;;0.75;0.60;;;;;;;;;;4895138;29;20456;-78
2022/05/26 10:52:46;;;;;;;1.33;1.08;;;;;;;;;;4879678;29;20032;-79
2022/05/26 10:55:18;;;;;;;1.38;1.10;;;;;;;;;;4891352;29;20052;-78
2022/05/26 10:58:07;;;;;;;0.77;0.60;;;;;;;;;;4932921;28;20348;-80
2022/05/26 11:00:35;;;;;;;0.77;0.60;;;;;;;;;;4971754;28;20417;-80
2022/05/26 11:03:39;;;;;;;0.60;0.57;;;;;;;;;;4947481;28;20376;-80
2022/05/26 11:06:23;;;;;;;0.60;0.60;;;;;;;;;;4896442;29;20585;-81
2022/05/26 11:09:09;;;;;;;;;;;;;;;;;;;;;
2022/05/26 11:11:53;;;;;;;1.27;0.82;;;;;;;;;;4896762;29;20051;-81
2022/05/26 11:17:58;;;;;;;0.68;0.60;;;;;;;;;;4885879;29;20399;-79
2022/05/26 11:20:38;;;;;;;0.38;0.38;;;;;;;;;;4900720;29;20115;-79
2022/05/26 11:23:10;;;;;;;0.50;0.50;;;;;;;;;;4898162;29;21201;-80
2022/05/26 11:25:46;;;;;;;0.88;0.82;;;;;;;;;;4901944;29;20029;-79
2022/05/26 11:28:26;;;;;;;0.80;0.80;;;;;;;;;;4937985;29;20083;-80
2022/05/26 11:36:46;;;;;;;3.50;0.30;;;;;;;;;;4970715;28;20088;-79
2022/05/26 11:39:23;;;;;;;0.30;0.30;;;;;;;;;;5013349;28;20033;-85
2022/05/26 11:41:53;;;;;;;0.45;0.40;;;;;;;;;;5026734;28;20037;-83
2022/05/26 11:44:41;;;;;;;3.03;0.50;;;;;;;;;;4996446;28;20029;-85
2022/05/26 11:47:52;;;;;;;0.88;0.43;;;;;;;;;;4993640;28;20029;-82
2022/05/26 11:50:29;;;;;;;0.52;0.43;;;;;;;;;;5005415;28;20038;-83
2022/05/26 11:52:54;;;;;;;0.68;0.50;;;;;;;;;;5016181;28;20076;-83
2022/05/26 11:55:51;;;;;;;1.15;0.50;;;;;;;;;;5015718;28;20025;-82
2022/05/26 11:58:55;;;;;;;0.52;0.25;;;;;;;;;;5027900;28;20096;-83
2022/05/26 12:01:23;;;;;;;0.90;0.75;;;;;;;;;;5002106;28;20450;-82
2022/05/26 12:04:00;;;;;;;0.68;0.68;;;;;;;;;;5016189;28;20120;-82
2022/05/26 12:06:33;;;;;;;0.65;0.50;;;;;;;;;;5016031;28;20518;-82
2022/05/26 12:09:18;;;;;;;0.47;0.30;;;;;;;;;;5013999;28;20064;-82
2022/05/26 12:12:04;;;;;;;1.27;0.68;;;;;;;;;;5014910;28;20356;-83
2022/05/26 12:14:50;;;;;;;1.15;1.13;;;;;;;;;;5017124;28;20482;-83
2022/05/26 12:17:33;;;;;;;0.50;0.40;;;;;;;;;;5014775;28;20030;-82
2022/05/26 12:20:13;;;;;;;1.65;0.75;;;;;;;;;;5015141;28;20112;-84
2022/05/26 12:23:00;;;;;;;0.93;0.70;;;;;;;;;;5013846;28;20041;-82
2022/05/26 12:25:29;;;;;;;1.33;0.75;;;;;;;;;;5004478;28;20120;-82
2022/05/26 12:28:10;;;;;;;0.73;0.73;;;;;;;;;;5011024;28;20034;-82
2022/05/26 12:30:44;;;;;;;0.63;0.63;;;;;;;;;;5016656;28;20034;-83
2022/05/26 12:33:39;;;;;;;1.10;0.98;;;;;;;;;;5014678;28;20021;-83
2022/05/26 12:36:26;;;;;;;4.43;1.17;;;;;;;;;;5007230;28;20355;-81
2022/05/26 12:38:57;;;;;;;0.45;0.45;;;;;;;;;;5011374;28;20041;-83
2022/05/26 12:41:47;;;;;;;1.17;0.87;;;;;;;;;;5015376;28;20037;-83
2022/05/26 12:44:28;;;;;;;0.40;0.40;;;;;;;;;;5015431;28;20443;-84
2022/05/26 12:47:02;;;;;;;2.63;1.35;;;;;;;;;;4999174;28;20087;-83
2022/05/26 12:49:51;;;;;;;0.88;0.75;;;;;;;;;;5014814;28;20029;-81
2022/05/26 12:52:16;;;;;;;1.55;1.10;;;;;;;;;;5015344;28;20025;-82
2022/05/26 12:55:04;;;;;;;1.20;0.70;;;;;;;;;;5015226;28;20128;-83
2022/05/26 12:57:33;;;;;;;1.67;0.73;;;;;;;;;;5004221;28;20026;-83
2022/05/26 13:00:20;;;;;;;0.75;0.68;;;;;;;;;;5000111;28;20093;-84
2022/05/26 13:02:50;;;;;;;1.25;1.15;;;;;;;;;;5015765;28;20022;-82
2022/05/26 13:05:16;;;;;;;0.50;0.50;;;;;;;;;;4998653;28;20077;-80
2022/05/26 13:07:50;;;;;;;0.73;0.73;;;;;;;;;;4998591;28;20026;-82
2022/05/26 13:10:17;;;;;;;0.50;0.50;;;;;;;;;;4998486;28;20107;-81
2022/05/26 13:12:46;;;;;;;0.90;0.80;;;;;;;;;;4997371;28;20454;-85
2022/05/26 13:15:23;;;;;;;1.35;1.02;;;;;;;;;;4995400;28;20085;-84
2022/05/26 13:17:48;;;;;;;1.10;1.00;;;;;;;;;;5014138;28;20447;-81
2022/05/26 13:20:29;;;;;;;0.65;0.65;;;;;;;;;;5014434;28;20040;-81
2022/05/26 13:22:54;;;;;;;0.45;0.43;;;;;;;;;;5010023;28;20025;-81
2022/05/26 13:25:26;;;;;;;5.65;0.80;;;;;;;;;;4997822;28;20022;-81
2022/05/26 13:28:05;;;;;;;1.75;0.55;;;;;;;;;;5014609;28;20685;-82
2022/05/26 13:33:24;;;;;;;0.40;0.40;;;;;;;;;;5014401;28;20113;-81
2022/05/26 13:35:53;;;;;;;1.30;0.55;;;;;;;;;;5008409;28;20084;-81
2022/05/26 13:38:23;;;;;;;1.85;0.65;;;;;;;;;;5011697;28;20030;-81
2022/05/26 13:40:51;;;;;;;0.50;0.50;;;;;;;;;;5014431;28;20030;-82
2022/05/26 13:43:17;;;;;;;0.43;0.43;;;;;;;;;;5014158;28;20432;-81
2022/05/26 13:45:43;;;;;;;0.28;0.28;;;;;;;;;;4996599;28;20030;-81
2022/05/26 13:48:42;;;;;;;1.23;1.13;;;;;;;;;;4997962;28;20068;-81
2022/05/26 13:51:23;;;;;;;0.55;0.55;;;;;;;;;;4998753;28;20060;-82
2022/05/26 13:53:53;;;;;;;0.90;0.90;;;;;;;;;;4997494;28;20498;-80
2022/05/26 13:56:29;;;;;;;1.38;1.15;;;;;;;;;;4998150;28;20034;-82
2022/05/26 13:58:58;;;;;;;11.05;0.88;;;;;;;;;;4996562;28;20026;-81
2022/05/26 14:02:04;;;;;;;2.22;1.15;;;;;;;;;;5007900;28;20480;-81
2022/05/26 14:04:40;;;;;;;0.13;0.13;;;;;;;;;;5007175;28;20041;-81
2022/05/26 14:07:35;;;;;;;0.38;0.20;;;;;;;;;;4985157;28;20035;-80
2022/05/26 14:10:09;;;;;;;0.47;0.47;;;;;;;;;;5014657;28;20098;-81
2022/05/26 14:12:35;;;;;;;3.63;0.60;;;;;;;;;;5013845;28;20036;-80
2022/05/26 14:15:04;;;;;;;0.28;0.28;;;;;;;;;;5011878;28;20392;-81
2022/05/26 14:17:38;;;;;;;1.33;0.68;;;;;;;;;;5013107;28;20438;-81
2022/05/26 14:20:24;;;;;;;1.38;1.02;;;;;;;;;;5013945;28;20101;-80
2022/05/26 14:22:50;;;;;;;13.57;0.85;;;;;;;;;;5014813;28;20405;-80
2022/05/26 14:25:22;;;;;;;0.28;0.28;;;;;;;;;;5013978;28;20101;-80
2022/05/26 14:28:04;;;;;;;2.13;0.43;;;;;;;;;;4996997;28;20055;-79
2022/05/26 14:30:35;;;;;;;0.80;0.80;;;;;;;;;;5014739;28;20040;-81
2022/05/26 14:33:18;;;;;;;0.22;0.22;;;;;;;;;;5014398;28;20080;-81
2022/05/26 14:35:46;;;;;;;1.20;0.70;;;;;;;;;;5013463;28;20415;-81
2022/05/26 14:38:13;;;;;;;1.48;0.32;;;;;;;;;;5013590;28;20022;-81
2022/05/26 14:40:39;;;;;;;0.65;0.15;;;;;;;;;;4997684;28;20021;-80
2022/05/26 14:43:07;;;;;;;0.40;0.40;;;;;;;;;;4994937;28;20025;-80
2022/05/26 14:45:34;;;;;;;0.45;0.45;;;;;;;;;;4997732;28;20533;-81
2022/05/26 14:48:03;;;;;;;1.15;0.60;;;;;;;;;;5011343;28;20048;-81
2022/05/26 14:50:29;;;;;;;0.10;0.10;;;;;;;;;;5014488;28;20014;-81
2022/05/26 14:52:57;;;;;;;0.22;0.22;;;;;;;;;;5013500;28;20067;-81
2022/05/26 14:55:29;;;;;;;0.43;0.30;;;;;;;;;;5016995;28;20408;-81
2022/05/26 14:58:09;;;;;;;2.30;0.60;;;;;;;;;;5022069;28;20410;-83
2022/05/26 15:00:43;;;;;;;0.70;0.60;;;;;;;;;;5019894;28;20021;-82
2022/05/26 15:03:14;;;;;;;1.35;0.57;;;;;;;;;;5017860;28;20034;-82
2022/05/26 15:05:40;;;;;;;0.30;0.30;;;;;;;;;;4998446;28;20362;-83
2022/05/26 15:08:19;;;;;;;0.40;0.40;;;;;;;;;;4997117;28;20036;-80
2022/05/26 15:10:45;;;;;;;0.57;0.35;;;;;;;;;;5015025;28;20371;-80
2022/05/26 15:13:12;;;;;;;1.85;0.65;;;;;;;;;;5012936;28;20045;-81
2022/05/26 15:15:38;;;;;;;0.38;0.38;;;;;;;;;;5013983;28;20033;-79
2022/05/26 15:18:06;;;;;;;0.30;0.30;;;;;;;;;;4995412;28;20041;-80
2022/05/26 15:20:34;;;;;;;0.88;0.30;;;;;;;;;;5012957;28;20034;-79
2022/05/26 15:23:00;;;;;;;2.30;1.30;;;;;;;;;;5008519;28;20439;-78
2022/05/26 15:25:26;;;;;;;0.28;0.28;;;;;;;;;;5009936;28;20029;-80
2022/05/26 15:31:19;;;;;;;0.35;0.30;;;;;;;;;;5014224;28;20048;-80
2022/05/26 15:33:47;;;;;;;1.23;0.70;;;;;;;;;;4991755;28;20026;-82
2022/05/26 15:36:17;;;;;;;1.20;0.70;;;;;;;;;;5012935;28;20045;-79
2022/05/26 15:38:46;;;;;;;0.17;0.17;;;;;;;;;;5012997;28;20355;-79
2022/05/26 15:41:17;;;;;;;0.43;0.20;;;;;;;;;;5012314;28;20042;-80
2022/05/26 15:43:44;;;;;;;1.33;0.45;;;;;;;;;;5013691;28;20475;-80
2022/05/26 15:46:14;;;;;;;1.13;0.93;;;;;;;;;;5017361;28;20108;-80
2022/05/26 15:48:42;;;;;;;0.25;0.25;;;;;;;;;;5001625;28;20048;-80
2022/05/26 15:51:08;;;;;;;0.90;0.10;;;;;;;;;;5018134;28;20092;-80
2022/05/26 15:53:34;;;;;;;0.80;0.45;;;;;;;;;;5015549;28;20080;-82
2022/05/26 15:56:02;;;;;;;0.30;0.30;;;;;;;;;;5017276;28;20037;-80
2022/05/26 15:58:30;;;;;;;1.77;0.30;;;;;;;;;;5016460;28;20049;-82
2022/05/26 16:00:56;;;;;;;0.30;0.30;;;;;;;;;;5016562;28;20351;-82
2022/05/26 16:03:23;;;;;;;0.82;0.52;;;;;;;;;;5016969;28;20461;-81
2022/05/26 16:05:49;;;;;;;0.80;0.20;;;;;;;;;;5017276;28;20026;-82
2022/05/26 16:08:20;;;;;;;0.22;0.22;;;;;;;;;;4999543;28;20029;-82